Time;durP1;ratioP1;P1;durP2;ratioP2;P2;SDS_P1;SDS_P2;PMS_P1;PMS_P2;Temp;Humidity;BMP_temperature;BMP_pressure;BME280_temperature;BME280_humidity;BME280_pressure;Samples;Min_cycle;Max_cycle;Signal;HPM_P1;HPM_P2
2022/01/24 00:01:40;;;;;;;1.00;0.30;;;18.60;42.00;;;;;;5086460;28;20040;-68
2022/01/24 00:04:07;;;;;;;0.40;0.17;;;18.70;41.90;;;;;;5087933;28;20079;-67
2022/01/24 00:06:33;;;;;;;0.80;0.25;;;18.70;41.80;;;;;;5089093;28;20040;-68
2022/01/24 00:09:03;;;;;;;0.65;0.28;;;18.80;41.70;;;;;;5087955;28;20088;-68
2022/01/24 00:11:41;;;;;;;0.57;0.20;;;18.80;41.60;;;;;;5088194;28;20047;-67
2022/01/24 00:14:51;;;;;;;1.10;0.30;;;18.80;41.50;;;;;;5087657;28;20044;-67
2022/01/24 00:17:13;;;;;;;0.73;0.28;;;18.90;41.40;;;;;;5088718;28;20056;-67
2022/01/24 00:27:55;;;;;;;0.55;0.20;;;19.00;41.00;;;;;;5088423;28;20059;-67
2022/01/24 00:30:23;;;;;;;0.43;0.20;;;19.00;41.00;;;;;;5089034;28;20036;-67
2022/01/24 00:32:49;;;;;;;0.70;0.28;;;19.10;40.80;;;;;;5087443;28;20036;-67
2022/01/24 00:35:14;;;;;;;0.45;0.20;;;19.10;40.90;;;;;;5087295;28;20038;-67
2022/01/24 00:37:40;;;;;;;0.77;0.22;;;19.10;40.80;;;;;;5087192;28;20052;-67
2022/01/24 00:40:08;;;;;;;0.70;0.20;;;19.10;40.70;;;;;;5088697;28;20051;-67
2022/01/24 00:42:48;;;;;;;0.40;0.20;;;19.10;40.60;;;;;;5088361;28;20052;-67
2022/01/24 00:45:26;;;;;;;;;;;19.20;40.60;;;;;;5087323;28;20066;-67
2022/01/24 00:56:18;;;;;;;0.60;0.30;;;19.30;40.40;;;;;;5130588;27;20402;-67
2022/01/24 00:58:44;;;;;;;1.02;0.30;;;19.20;40.40;;;;;;5129192;28;20486;-67
2022/01/24 01:01:10;;;;;;;0.60;0.20;;;19.30;40.30;;;;;;5130247;27;20099;-67
2022/01/24 01:03:35;;;;;;;0.70;0.20;;;19.30;40.30;;;;;;5128825;28;20039;-68
2022/01/24 01:19:46;;;;;;;0.40;0.20;;;19.20;40.20;;;;;;5108102;28;20048;-67
2022/01/24 01:22:12;;;;;;;1.27;0.40;;;19.20;40.20;;;;;;5108577;28;20035;-67
2022/01/24 01:24:48;;;;;;;0.75;0.20;;;19.20;40.20;;;;;;5109354;28;20040;-68
2022/01/24 01:27:19;;;;;;;0.50;0.20;;;19.20;40.30;;;;;;5109457;28;20043;-68
2022/01/24 01:29:53;;;;;;;0.93;0.22;;;19.10;40.30;;;;;;5109401;28;20043;-67
2022/01/24 01:32:40;;;;;;;1.15;0.32;;;19.20;40.30;;;;;;5108357;28;20040;-67
2022/01/24 01:35:21;;;;;;;0.60;0.30;;;19.10;40.20;;;;;;5109040;28;20133;-68
2022/01/24 01:38:04;;;;;;;0.50;0.20;;;19.20;40.20;;;;;;5108018;28;20491;-67
2022/01/24 01:56:54;;;;;;;0.60;0.20;;;19.40;39.80;;;;;;5130287;27;20358;-68
2022/01/24 01:59:20;;;;;;;0.70;0.28;;;19.40;39.80;;;;;;5128860;28;20112;-67
2022/01/24 02:01:45;;;;;;;0.55;0.22;;;19.40;39.70;;;;;;5129371;28;20126;-68
2022/01/24 02:04:11;;;;;;;0.57;0.30;;;19.40;39.80;;;;;;5128927;27;20410;-68
2022/01/24 02:06:40;;;;;;;0.80;0.32;;;19.40;39.80;;;;;;5130044;27;20064;-68
2022/01/24 02:09:09;;;;;;;0.65;0.20;;;19.40;39.70;;;;;;5128777;28;20048;-68
2022/01/24 02:11:35;;;;;;;0.50;0.30;;;19.30;39.70;;;;;;5130175;27;20035;-68
2022/01/24 02:14:06;;;;;;;1.20;0.30;;;19.40;39.70;;;;;;5128657;28;20054;-68
2022/01/24 02:24:53;;;;;;;0.70;0.20;;;19.30;39.70;;;;;;5089496;28;20409;-68
2022/01/24 02:27:21;;;;;;;1.23;0.35;;;19.20;39.70;;;;;;5089385;28;20094;-68
2022/01/24 02:29:54;;;;;;;0.65;0.35;;;19.30;39.80;;;;;;5088014;28;20119;-67
2022/01/24 02:32:23;;;;;;;0.50;0.30;;;19.20;39.70;;;;;;5088243;28;20044;-67
2022/01/24 02:34:50;;;;;;;0.77;0.30;;;19.30;39.70;;;;;;5088299;28;20036;-68
2022/01/24 02:37:18;;;;;;;0.75;0.28;;;19.20;39.70;;;;;;5088191;28;20044;-68
2022/01/24 02:39:50;;;;;;;1.13;0.45;;;19.30;39.70;;;;;;5088149;28;20127;-67
2022/01/24 02:48:33;;;;;;;0.60;0.30;;;19.30;39.70;;;;;;5088830;28;20135;-67
2022/01/24 02:53:33;;;;;;;0.73;0.30;;;19.30;39.60;;;;;;5150999;27;20430;-68
2022/01/24 02:56:04;;;;;;;0.80;0.43;;;19.30;39.60;;;;;;5129119;28;20106;-68
2022/01/24 02:58:29;;;;;;;0.73;0.20;;;19.30;39.60;;;;;;5129029;28;20118;-68
2022/01/24 03:00:56;;;;;;;0.60;0.30;;;19.30;39.50;;;;;;5129445;28;20118;-68
2022/01/24 03:03:22;;;;;;;0.60;0.20;;;19.30;39.50;;;;;;5129084;28;20035;-68
2022/01/24 03:05:48;;;;;;;1.00;0.30;;;19.40;39.60;;;;;;5129143;28;20118;-68
2022/01/24 03:08:14;;;;;;;0.70;0.40;;;19.30;39.50;;;;;;5129050;28;20077;-68
2022/01/24 03:10:46;;;;;;;0.75;0.30;;;19.40;39.50;;;;;;5128734;28;20503;-68
2022/01/24 03:16:03;;;;;;;0.47;0.28;;;19.40;39.50;;;;;;5130281;27;20401;-67
2022/01/24 03:18:29;;;;;;;0.52;0.30;;;19.40;39.50;;;;;;5129203;28;20078;-68
2022/01/24 03:20:55;;;;;;;1.02;0.40;;;19.40;39.40;;;;;;5129184;27;20047;-67
2022/01/24 03:23:23;;;;;;;0.75;0.45;;;19.40;39.40;;;;;;5129123;28;20130;-68
2022/01/24 03:25:49;;;;;;;0.43;0.22;;;19.40;39.40;;;;;;5129201;28;20048;-68
2022/01/24 03:28:15;;;;;;;0.63;0.30;;;19.40;39.40;;;;;;5128758;28;20050;-68
2022/01/24 03:30:41;;;;;;;0.50;0.20;;;19.40;39.30;;;;;;5128985;28;20051;-67
2022/01/24 03:33:08;;;;;;;0.70;0.30;;;19.40;39.30;;;;;;5130058;27;20398;-67
2022/01/24 03:35:34;;;;;;;0.60;0.30;;;19.40;39.20;;;;;;5129907;27;20543;-67
2022/01/24 03:38:02;;;;;;;0.50;0.20;;;19.50;39.20;;;;;;5128600;28;20035;-67
2022/01/24 03:40:27;;;;;;;0.55;0.20;;;19.50;39.20;;;;;;5128851;28;20060;-67
2022/01/24 03:42:53;;;;;;;1.10;0.32;;;19.50;39.10;;;;;;5129742;28;20066;-68
2022/01/24 03:46:11;;;;;;;1.65;0.30;;;19.50;39.10;;;;;;5129014;28;20043;-67
2022/01/24 03:48:22;;;;;;;0.55;0.30;;;19.50;39.10;;;;;;5128030;28;20475;-67
2022/01/24 03:50:48;;;;;;;0.70;0.32;;;19.50;39.10;;;;;;5128400;28;20068;-67
2022/01/24 03:53:13;;;;;;;0.60;0.30;;;19.50;39.10;;;;;;5128549;28;20391;-67
2022/01/24 03:55:39;;;;;;;0.52;0.30;;;19.50;39.10;;;;;;5128155;28;20050;-68
2022/01/24 03:58:07;;;;;;;0.80;0.30;;;19.50;39.10;;;;;;5128172;28;20042;-68
2022/01/24 04:00:33;;;;;;;1.60;0.50;;;19.50;39.10;;;;;;5129635;28;20390;-68
2022/01/24 04:03:02;;;;;;;0.80;0.20;;;19.50;39.10;;;;;;5128408;28;20119;-67
2022/01/24 04:05:28;;;;;;;0.68;0.30;;;19.50;39.10;;;;;;5129323;28;20534;-67
2022/01/24 04:07:53;;;;;;;0.75;0.40;;;19.40;39.10;;;;;;5129305;28;20119;-67
2022/01/24 04:10:21;;;;;;;0.50;0.20;;;19.40;39.10;;;;;;5129224;28;20074;-67
2022/01/24 04:12:49;;;;;;;0.50;0.20;;;19.40;39.10;;;;;;5129213;28;20035;-67
2022/01/24 04:15:58;;;;;;;0.50;0.20;;;19.40;39.10;;;;;;5128754;28;20081;-67
2022/01/24 04:21:21;;;;;;;0.93;0.30;;;19.40;39.20;;;;;;5127838;28;20051;-67
2022/01/24 04:23:33;;;;;;;0.52;0.30;;;19.40;39.20;;;;;;5128831;28;20043;-67
2022/01/24 04:25:59;;;;;;;0.65;0.40;;;19.40;39.20;;;;;;5121362;28;20479;-67
2022/01/24 04:28:24;;;;;;;0.50;0.20;;;19.40;39.30;;;;;;5115602;28;20054;-67
2022/01/24 04:30:50;;;;;;;0.63;0.40;;;19.40;39.20;;;;;;5114117;28;20036;-67
2022/01/24 04:33:15;;;;;;;0.70;0.20;;;19.30;39.20;;;;;;5115139;28;20505;-67
2022/01/24 04:35:41;;;;;;;1.25;0.43;;;19.30;39.20;;;;;;5113523;28;20097;-67
2022/01/24 04:38:07;;;;;;;1.50;0.30;;;19.30;39.40;;;;;;5113796;28;20047;-67
2022/01/24 04:40:32;;;;;;;0.82;0.40;;;19.30;39.30;;;;;;5115218;28;20035;-67
2022/01/24 04:43:19;;;;;;;0.85;0.30;;;19.30;39.40;;;;;;5113969;28;20483;-67
2022/01/24 04:51:33;;;;;;;1.05;0.40;;;19.20;39.40;;;;;;5114583;28;20039;-67
2022/01/24 04:54:44;;;;;;;0.77;0.40;;;19.20;39.40;;;;;;5113410;28;20043;-67
2022/01/24 04:56:44;;;;;;;0.60;0.30;;;19.20;39.40;;;;;;5113374;28;20158;-67
2022/01/24 04:59:10;;;;;;;0.80;0.32;;;19.20;39.50;;;;;;5114643;28;20119;-67
2022/01/24 05:01:36;;;;;;;1.23;0.73;;;19.20;39.50;;;;;;5113299;28;20035;-67
2022/01/24 05:04:03;;;;;;;0.65;0.32;;;19.20;39.50;;;;;;5113288;28;20047;-67
2022/01/24 05:06:29;;;;;;;0.80;0.40;;;19.20;40.30;;;;;;5113401;28;20051;-67
2022/01/24 05:08:54;;;;;;;0.95;0.30;;;19.10;39.50;;;;;;5114393;28;20039;-67
2022/01/24 05:11:32;;;;;;;0.70;0.38;;;19.10;39.60;;;;;;5114297;28;20031;-67
2022/01/24 05:23:27;;;;;;;1.00;0.47;;;19.10;39.70;;;;;;5113977;28;20065;-67
2022/01/24 05:25:00;;;;;;;0.85;0.50;;;19.10;39.70;;;;;;5112918;28;20075;-68
2022/01/24 05:27:26;;;;;;;1.23;0.50;;;19.10;39.80;;;;;;5113155;28;20075;-67
2022/01/24 05:29:52;;;;;;;1.35;0.40;;;19.10;39.80;;;;;;5112802;28;20524;-67
2022/01/24 05:32:17;;;;;;;0.90;0.40;;;19.10;39.90;;;;;;5112823;28;20051;-67
2022/01/24 05:34:43;;;;;;;0.88;0.50;;;19.10;39.80;;;;;;5112788;28;20134;-68
2022/01/24 05:37:09;;;;;;;0.93;0.50;;;19.10;39.80;;;;;;5113312;28;20395;-67
2022/01/24 05:39:34;;;;;;;0.80;0.47;;;19.10;39.80;;;;;;5113764;28;20486;-67
2022/01/24 05:42:00;;;;;;;1.27;0.65;;;19.00;39.80;;;;;;5112464;28;20702;-67
2022/01/24 05:44:25;;;;;;;1.00;0.50;;;19.00;39.90;;;;;;5113806;28;20047;-67
2022/01/24 05:46:51;;;;;;;1.20;0.40;;;19.00;39.90;;;;;;5113668;28;20028;-68
2022/01/24 05:49:17;;;;;;;1.25;0.98;;;19.00;39.90;;;;;;5113081;28;20467;-67
2022/01/24 05:51:42;;;;;;;1.45;0.40;;;19.00;40.00;;;;;;5112295;28;20471;-67
2022/01/24 05:54:08;;;;;;;1.67;0.77;;;18.90;40.00;;;;;;5112433;28;20047;-67
2022/01/24 05:56:34;;;;;;;1.10;0.60;;;18.90;40.10;;;;;;5112308;28;20498;-67
2022/01/24 05:58:59;;;;;;;1.10;0.70;;;18.90;40.20;;;;;;5112569;28;20050;-67
2022/01/24 06:01:25;;;;;;;1.33;0.60;;;18.90;40.30;;;;;;5113910;28;20040;-67
2022/01/24 06:03:51;;;;;;;1.40;0.77;;;18.80;40.30;;;;;;5112025;28;20040;-67
2022/01/24 06:06:16;;;;;;;1.13;0.60;;;18.80;40.30;;;;;;5112135;28;20047;-67
2022/01/24 06:08:42;;;;;;;2.05;0.50;;;18.80;40.40;;;;;;5113584;28;20084;-67
2022/01/24 06:11:07;;;;;;;1.20;0.63;;;18.80;40.50;;;;;;5112020;28;20475;-67
2022/01/24 06:13:33;;;;;;;1.75;0.80;;;18.70;40.50;;;;;;5111639;28;20043;-67
2022/01/24 06:15:59;;;;;;;1.40;0.65;;;18.70;40.50;;;;;;5112080;28;20043;-67
2022/01/24 06:18:25;;;;;;;1.38;0.65;;;18.70;40.60;;;;;;5111928;28;20364;-67
2022/01/24 06:20:52;;;;;;;1.38;1.02;;;18.60;40.70;;;;;;5112058;28;20051;-68
2022/01/24 06:23:19;;;;;;;3.17;1.38;;;18.60;40.70;;;;;;5111970;28;20429;-67
2022/01/24 06:25:44;;;;;;;2.33;1.30;;;18.60;40.80;;;;;;5112858;28;20092;-68
2022/01/24 06:28:11;;;;;;;1.75;1.10;;;18.60;40.90;;;;;;5113038;28;20043;-67
2022/01/24 06:30:37;;;;;;;1.63;1.30;;;18.50;40.90;;;;;;5111918;28;20049;-67
2022/01/24 06:33:03;;;;;;;2.40;1.63;;;18.50;40.90;;;;;;5109148;28;20065;-67
2022/01/24 06:35:28;;;;;;;2.40;1.60;;;18.50;41.00;;;;;;5108598;28;20035;-67
2022/01/24 06:37:54;;;;;;;2.10;1.65;;;18.50;41.00;;;;;;5108975;28;20042;-67
2022/01/24 06:40:20;;;;;;;2.30;1.77;;;18.40;41.00;;;;;;5112051;28;20039;-67
2022/01/24 06:42:45;;;;;;;2.85;1.63;;;18.40;41.00;;;;;;5112539;28;20428;-67
2022/01/24 06:45:11;;;;;;;2.65;1.90;;;18.40;41.10;;;;;;5111572;28;20024;-66
2022/01/24 06:47:37;;;;;;;1.95;1.60;;;18.40;41.10;;;;;;5108867;28;20047;-67
2022/01/24 06:50:05;;;;;;;3.03;2.70;;;18.40;41.20;;;;;;5105488;28;20035;-69
2022/01/24 06:52:30;;;;;;;4.25;3.83;;;18.30;41.10;;;;;;5108842;28;20050;-69
2022/01/24 06:54:56;;;;;;;4.95;3.70;;;18.40;41.40;;;;;;5111318;28;20204;-70
2022/01/24 06:57:22;;;;;;;8.45;4.82;;;18.30;41.90;;;;;;5108307;28;20075;-70
2022/01/24 06:59:47;;;;;;;7.53;4.47;;;18.30;42.40;;;;;;5108592;28;20435;-69
2022/01/24 07:02:14;;;;;;;5.60;4.13;;;18.30;42.60;;;;;;5106460;28;20436;-70
2022/01/24 07:04:42;;;;;;;6.72;5.53;;;18.30;43.00;;;;;;5105386;28;20055;-69
2022/01/24 07:07:09;;;;;;;6.07;4.70;;;18.30;43.20;;;;;;5107052;28;20068;-71
2022/01/24 07:09:39;;;;;;;5.68;5.18;;;18.20;43.40;;;;;;5106429;28;20051;-71
2022/01/24 07:12:05;;;;;;;7.80;5.90;;;18.20;44.30;;;;;;5109692;28;20044;-70
2022/01/24 07:14:31;;;;;;;5.85;5.28;;;18.20;43.60;;;;;;5107303;28;20114;-70
2022/01/24 07:19:35;;;;;;;7.78;6.35;;;18.10;43.80;;;;;;5140214;27;1160925;-69
2022/01/24 07:22:05;;;;;;;6.45;5.80;;;18.10;44.00;;;;;;5146896;27;20042;-69
2022/01/24 07:24:32;;;;;;;;;;;18.00;44.10;;;;;;5146467;27;20054;-71
2022/01/24 07:26:59;;;;;;;7.55;6.55;;;18.00;44.70;;;;;;5145156;27;19915;-74
2022/01/24 07:29:24;;;;;;;7.18;6.10;;;18.00;44.40;;;;;;5148736;27;20043;-68
2022/01/24 07:31:50;;;;;;;5.88;5.22;;;18.10;44.60;;;;;;5146756;27;20053;-67
2022/01/24 07:34:17;;;;;;;6.13;5.53;;;18.30;44.50;;;;;;5140806;27;20111;-68
2022/01/24 07:36:43;;;;;;;18.05;13.60;;;18.50;44.40;;;;;;5121487;27;20047;-71
2022/01/24 07:39:08;;;;;;;17.73;15.23;;;18.80;43.30;;;;;;5149098;27;20071;-68
2022/01/24 07:41:42;;;;;;;23.20;20.20;;;19.00;41.80;;;;;;5151262;27;20517;-69
2022/01/24 07:44:08;;;;;;;20.63;18.33;;;19.10;40.80;;;;;;5133276;27;20043;-70
2022/01/24 07:46:34;;;;;;;23.52;21.02;;;19.20;40.00;;;;;;5132168;27;20435;-69
2022/01/24 07:49:02;;;;;;;21.48;18.35;;;19.20;39.50;;;;;;5153675;27;20125;-69
2022/01/24 07:51:28;;;;;;;17.65;15.38;;;19.10;39.40;;;;;;5150373;27;20038;-69
2022/01/24 07:53:53;;;;;;;14.65;13.13;;;19.20;39.80;;;;;;5154438;27;20581;-69
2022/01/24 07:56:19;;;;;;;12.52;11.23;;;19.30;40.40;;;;;;5137041;27;20023;-69
2022/01/24 07:58:45;;;;;;;12.77;11.30;;;19.40;41.00;;;;;;5145312;27;20062;-69
2022/01/24 08:01:12;;;;;;;13.13;10.88;;;19.50;41.30;;;;;;5142950;27;20062;-70
2022/01/24 08:03:37;;;;;;;15.18;11.23;;;19.60;41.40;;;;;;5136383;27;20553;-69
2022/01/24 08:06:03;;;;;;;11.15;9.93;;;19.70;41.40;;;;;;5137127;27;20039;-69
2022/01/24 08:08:29;;;;;;;11.68;10.48;;;19.80;41.50;;;;;;5115156;27;20038;-71
2022/01/24 08:10:54;;;;;;;9.35;8.38;;;20.00;41.70;;;;;;5134670;27;20441;-68
2022/01/24 08:13:20;;;;;;;9.32;8.23;;;20.00;41.70;;;;;;5123388;27;20038;-69
2022/01/24 08:15:46;;;;;;;9.18;7.95;;;20.10;41.60;;;;;;5126943;27;20171;-69
2022/01/24 08:18:14;;;;;;;9.07;7.55;;;20.10;41.50;;;;;;5136249;27;20105;-68
2022/01/24 08:20:41;;;;;;;8.45;7.03;;;20.30;41.40;;;;;;5128956;27;20034;-67
2022/01/24 08:23:11;;;;;;;8.98;5.90;;;20.50;41.20;;;;;;5149275;27;20035;-68
2022/01/24 08:25:37;;;;;;;6.47;5.85;;;20.60;41.00;;;;;;5129770;27;20046;-69
2022/01/24 08:28:04;;;;;;;7.43;6.70;;;20.80;40.80;;;;;;5129787;27;20084;-69
2022/01/24 08:30:30;;;;;;;8.13;6.72;;;21.00;40.60;;;;;;5135171;27;20060;-69
2022/01/24 08:32:56;;;;;;;8.18;5.70;;;21.10;40.40;;;;;;5118505;27;20118;-68
2022/01/24 08:35:22;;;;;;;7.07;5.88;;;21.30;40.20;;;;;;5136348;27;20118;-68
2022/01/24 08:37:49;;;;;;;6.28;5.70;;;21.40;40.10;;;;;;5117170;27;20039;-70
2022/01/24 08:40:25;;;;;;;7.25;4.63;;;21.50;39.90;;;;;;5115074;27;20055;-71
2022/01/24 08:42:59;;;;;;;5.53;5.03;;;21.50;39.70;;;;;;5114636;27;20070;-72
2022/01/24 08:45:58;;;;;;;5.28;4.78;;;21.60;39.60;;;;;;5125094;27;20035;-73
2022/01/24 08:48:14;;;;;;;5.97;5.07;;;21.70;39.60;;;;;;5129887;27;20050;-68
2022/01/24 08:50:41;;;;;;;6.65;5.25;;;21.70;39.50;;;;;;5134199;27;20035;-67
2022/01/24 08:53:10;;;;;;;5.35;4.85;;;21.70;39.50;;;;;;5117452;27;20626;-72
2022/01/24 08:55:37;;;;;;;6.55;5.50;;;21.70;39.50;;;;;;5117692;27;20034;-69
2022/01/24 08:58:05;;;;;;;5.22;4.72;;;21.70;40.20;;;;;;5115003;27;20049;-70
2022/01/24 09:00:31;;;;;;;6.43;5.25;;;21.80;39.50;;;;;;5113992;27;20050;-69
2022/01/24 09:02:57;;;;;;;5.85;5.35;;;21.70;39.50;;;;;;5120746;27;20643;-70
2022/01/24 09:05:23;;;;;;;7.38;5.10;;;21.80;39.50;;;;;;5116649;27;20039;-70
2022/01/24 09:07:50;;;;;;;5.28;4.78;;;21.80;39.50;;;;;;5112039;27;20047;-71
2022/01/24 09:10:16;;;;;;;4.90;4.40;;;21.80;39.50;;;;;;5117898;27;20088;-72
2022/01/24 09:12:42;;;;;;;5.18;4.45;;;21.80;39.40;;;;;;5116321;27;20047;-68
2022/01/24 09:15:08;;;;;;;4.68;4.28;;;21.90;39.40;;;;;;5114683;27;20039;-68
2022/01/24 09:17:35;;;;;;;5.00;4.60;;;21.90;39.30;;;;;;5113577;27;20046;-69
2022/01/24 09:20:00;;;;;;;5.07;4.65;;;22.00;39.20;;;;;;5113555;27;20568;-70
2022/01/24 09:22:26;;;;;;;5.38;4.90;;;22.10;39.10;;;;;;5132589;27;20091;-69
2022/01/24 09:24:53;;;;;;;5.00;4.50;;;22.20;39.10;;;;;;5116388;27;20038;-69
2022/01/24 09:27:19;;;;;;;4.63;4.15;;;22.20;39.00;;;;;;5130372;27;20043;-69
2022/01/24 09:29:44;;;;;;;4.72;4.22;;;22.30;38.90;;;;;;5117406;27;20073;-69
2022/01/24 09:32:10;;;;;;;5.65;4.43;;;22.40;38.80;;;;;;5124567;27;20062;-69
2022/01/24 09:34:39;;;;;;;8.80;7.18;;;22.40;38.70;;;;;;5134434;27;20487;-68
2022/01/24 09:37:08;;;;;;;5.97;5.47;;;22.40;38.00;;;;;;5135643;27;20060;-67
2022/01/24 09:39:34;;;;;;;12.48;11.15;;;22.40;38.00;;;;;;5131579;27;20043;-68
2022/01/24 09:42:00;;;;;;;10.15;9.15;;;22.40;37.00;;;;;;5112364;27;20890;-67
2022/01/24 09:44:26;;;;;;;12.77;10.55;;;22.30;36.10;;;;;;5121774;27;20121;-67
2022/01/24 09:46:51;;;;;;;14.63;13.18;;;22.20;35.90;;;;;;5123004;27;20367;-68
2022/01/24 09:49:17;;;;;;;15.85;14.13;;;22.20;35.50;;;;;;5124372;27;20045;-70
2022/01/24 09:51:44;;;;;;;18.25;16.15;;;22.00;35.00;;;;;;5109674;27;20099;-70
2022/01/24 09:54:11;;;;;;;17.10;14.20;;;21.90;34.60;;;;;;5113489;27;20057;-68
2022/01/24 09:56:36;;;;;;;10.65;9.57;;;21.80;34.50;;;;;;5115716;27;20077;-69
2022/01/24 09:59:03;;;;;;;9.48;8.48;;;21.80;35.00;;;;;;5128444;27;20043;-70
2022/01/24 10:01:30;;;;;;;9.20;8.23;;;21.80;35.20;;;;;;5105116;27;20027;-67
2022/01/24 10:04:17;;;;;;;8.43;7.18;;;22.00;35.60;;;;;;5113092;27;20043;-71
2022/01/24 10:09:43;;;;;;;6.57;5.97;;;22.20;35.90;;;;;;5055823;27;20189;-70
2022/01/24 10:17:41;;;;;;;6.65;5.75;;;22.40;36.10;;;;;;5070217;28;20040;-68
2022/01/24 10:23:09;;;;;;;6.13;5.53;;;22.40;36.30;;;;;;5096778;27;20411;-69
2022/01/24 10:25:59;;;;;;;5.97;5.22;;;22.40;36.50;;;;;;5091167;28;20495;-68
2022/01/24 10:34:13;;;;;;;5.90;5.40;;;22.10;36.80;;;;;;5108471;27;20425;-68
2022/01/24 10:47:55;;;;;;;5.35;4.45;;;21.60;37.10;;;;;;5098478;27;20411;-71
2022/01/24 10:50:28;;;;;;;5.90;4.70;;;21.50;37.40;;;;;;5074244;28;20036;-68
2022/01/24 10:52:54;;;;;;;4.75;4.35;;;21.40;37.70;;;;;;5075412;28;20054;-70
2022/01/24 10:55:24;;;;;;;6.25;4.65;;;21.30;38.00;;;;;;5081098;28;20044;-70
2022/01/24 10:57:56;;;;;;;5.03;4.63;;;21.10;38.10;;;;;;5072732;28;20036;-70
2022/01/24 11:00:25;;;;;;;4.55;4.13;;;21.00;38.40;;;;;;5086784;28;20034;-70
2022/01/24 11:02:53;;;;;;;6.60;4.37;;;20.80;38.70;;;;;;5078333;28;20055;-70
2022/01/24 11:05:24;;;;;;;4.93;4.32;;;20.70;39.10;;;;;;5080870;28;20533;-68
2022/01/24 11:08:09;;;;;;;6.78;4.45;;;20.60;39.40;;;;;;5101358;28;20407;-67
2022/01/24 11:10:41;;;;;;;9.38;7.88;;;20.50;39.70;;;;;;5075051;28;20499;-68
2022/01/24 11:13:08;;;;;;;6.30;5.70;;;20.30;37.80;;;;;;5081864;28;20044;-68
2022/01/24 11:15:35;;;;;;;7.15;6.00;;;20.20;38.10;;;;;;5078955;28;20048;-68
2022/01/24 11:18:02;;;;;;;6.35;5.85;;;20.10;38.30;;;;;;5085455;28;20043;-68
2022/01/24 11:20:32;;;;;;;6.10;5.00;;;20.00;38.40;;;;;;5086852;28;20032;-67
2022/01/24 11:23:01;;;;;;;5.72;3.90;;;19.80;39.50;;;;;;5083448;28;20067;-68
2022/01/24 11:25:29;;;;;;;4.28;3.97;;;19.80;39.30;;;;;;5081264;28;20048;-71
2022/01/24 11:27:55;;;;;;;4.40;4.00;;;19.70;39.70;;;;;;5081605;28;20119;-70
2022/01/24 11:33:37;;;;;;;3.72;3.10;;;19.60;40.00;;;;;;5097136;27;20421;-67
2022/01/24 11:36:07;;;;;;;4.22;3.47;;;19.40;40.70;;;;;;5118509;27;20052;-68
2022/01/24 11:38:38;;;;;;;3.83;3.53;;;19.40;40.80;;;;;;5098996;28;20059;-67
2022/01/24 11:41:11;;;;;;;4.32;3.67;;;19.30;41.00;;;;;;5116021;27;20040;-67
2022/01/24 11:43:41;;;;;;;4.45;4.05;;;19.20;41.20;;;;;;5125064;27;20040;-67
2022/01/24 11:46:31;;;;;;;4.30;3.60;;;19.20;41.40;;;;;;5086392;28;20051;-68
2022/01/24 11:49:35;;;;;;;3.67;3.38;;;19.10;41.60;;;;;;5115535;27;20041;-67
2022/01/24 11:57:39;;;;;;;4.35;3.95;;;19.00;41.80;;;;;;5121492;27;1177595;-71
2022/01/24 12:02:50;;;;;;;3.90;3.17;;;18.80;40.60;;;;;;5092423;27;20454;-70
2022/01/24 12:08:05;;;;;;;3.88;3.58;;;18.70;41.00;;;;;;5106930;27;1163146;-69
2022/01/24 12:13:27;;;;;;;5.57;3.53;;;18.60;41.40;;;;;;5084968;27;20403;-68
2022/01/24 12:21:21;;;;;;;2.70;2.38;;;18.50;41.80;;;;;;5092027;27;20433;-68
2022/01/24 12:26:36;;;;;;;4.38;2.70;;;18.30;42.30;;;;;;5064925;27;20530;-68
2022/01/24 12:31:47;;;;;;;4.50;3.22;;;18.30;42.60;;;;;;5068637;27;20407;-68
2022/01/24 12:42:25;;;;;;;2.40;2.20;;;18.20;42.80;;;;;;5115429;27;1160053;-69
2022/01/24 12:47:40;;;;;;;4.35;1.90;;;18.00;43.40;;;;;;5129470;27;20054;-70
2022/01/24 12:50:08;;;;;;;2.47;2.05;;;18.10;43.60;;;;;;5131678;27;20043;-69
2022/01/24 12:52:34;;;;;;;2.83;2.47;;;18.00;43.60;;;;;;5120980;27;20157;-68
2022/01/24 12:55:03;;;;;;;2.63;2.35;;;18.00;43.80;;;;;;5127513;27;20054;-70
2022/01/24 12:57:32;;;;;;;2.40;2.17;;;18.00;43.90;;;;;;5131317;27;20042;-70
2022/01/24 13:00:07;;;;;;;3.50;2.42;;;18.00;44.00;;;;;;5130132;27;20388;-68
2022/01/24 13:02:36;;;;;;;3.15;2.50;;;18.00;44.10;;;;;;5145348;27;20461;-68
2022/01/24 13:05:20;;;;;;;2.67;2.47;;;17.90;44.20;;;;;;5133430;27;20087;-69
2022/01/24 13:07:53;;;;;;;3.47;1.98;;;17.90;45.30;;;;;;5149829;27;20038;-67
2022/01/24 13:10:22;;;;;;;2.40;2.20;;;17.90;44.50;;;;;;5128143;27;20382;-67
2022/01/24 13:13:07;;;;;;;2.80;2.15;;;17.90;44.50;;;;;;5149285;27;20077;-67
2022/01/24 13:21:11;;;;;;;2.80;2.50;;;17.80;44.90;;;;;;5129971;27;20047;-68
2022/01/24 13:23:42;;;;;;;3.22;2.28;;;17.80;45.10;;;;;;5130736;27;20035;-66
2022/01/24 13:26:09;;;;;;;3.50;2.10;;;17.80;45.20;;;;;;5149546;27;20027;-67
2022/01/24 13:28:35;;;;;;;4.47;2.72;;;17.80;45.30;;;;;;5149868;27;20036;-68
2022/01/24 13:31:02;;;;;;;3.65;2.58;;;17.80;45.50;;;;;;5146526;27;20832;-68
2022/01/24 13:33:30;;;;;;;3.00;2.70;;;17.80;45.50;;;;;;5126260;27;20046;-67
2022/01/24 13:36:05;;;;;;;2.83;2.40;;;17.80;45.60;;;;;;5126444;27;20042;-68
2022/01/24 13:38:37;;;;;;;2.60;2.38;;;17.70;45.70;;;;;;5126776;27;20050;-70
2022/01/24 13:41:10;;;;;;;4.15;2.53;;;17.70;46.60;;;;;;5145082;27;20063;-67
2022/01/24 13:46:25;;;;;;;2.78;1.95;;;17.80;47.30;;;;;;5067927;27;20411;-67
2022/01/24 13:54:16;;;;;;;5.38;2.20;;;17.80;47.10;;;;;;5033474;27;20840;-66
2022/01/24 13:56:48;;;;;;;3.65;1.88;;;17.80;47.10;;;;;;5015579;28;20205;-68
2022/01/24 14:01:57;;;;;;;2.53;2.25;;;17.70;47.20;;;;;;5106840;27;1168560;-65
2022/01/24 14:04:27;;;;;;;2.90;2.30;;;17.80;47.30;;;;;;5115497;27;20034;-66
2022/01/24 14:07:00;;;;;;;3.45;2.38;;;17.70;47.40;;;;;;5127713;27;20035;-65
2022/01/24 14:20:50;;;;;;;3.72;3.20;;;17.70;46.90;;;;;;5082156;27;20419;-65
2022/01/24 14:26:25;;;;;;;4.32;3.20;;;17.60;46.70;;;;;;5091530;27;20959;-68
2022/01/24 14:29:12;;;;;;;3.58;3.08;;;17.60;46.70;;;;;;5069389;28;20779;-68
2022/01/24 14:31:40;;;;;;;5.57;3.13;;;17.60;46.80;;;;;;5094689;28;20616;-64
2022/01/24 14:34:13;;;;;;;4.45;3.17;;;17.60;46.60;;;;;;5088359;28;20119;-64
2022/01/24 14:36:40;;;;;;;3.10;2.80;;;17.60;46.40;;;;;;5101445;28;20147;-64
2022/01/24 14:39:09;;;;;;;4.85;4.15;;;17.50;46.30;;;;;;5093137;28;20075;-65
2022/01/24 14:47:06;;;;;;;5.00;4.30;;;17.50;45.30;;;;;;5083391;28;20048;-67
2022/01/24 14:49:36;;;;;;;4.38;3.97;;;17.50;45.30;;;;;;5084474;28;20097;-65
2022/01/24 14:52:06;;;;;;;5.97;4.28;;;17.40;45.30;;;;;;5080950;28;20078;-67
2022/01/24 14:54:34;;;;;;;4.82;4.35;;;17.40;45.30;;;;;;5082455;28;20131;-66
2022/01/24 14:57:05;;;;;;;4.10;3.65;;;17.40;45.30;;;;;;5086718;28;20044;-65
2022/01/24 14:59:32;;;;;;;6.32;4.72;;;17.40;45.40;;;;;;5080904;28;20043;-65
2022/01/24 15:01:58;;;;;;;4.32;3.90;;;17.30;45.40;;;;;;5065143;28;20048;-66
2022/01/24 15:04:24;;;;;;;4.25;3.85;;;17.30;45.40;;;;;;5083431;28;20034;-67
2022/01/24 15:06:51;;;;;;;4.03;3.72;;;17.30;45.50;;;;;;5084203;28;20107;-66
2022/01/24 15:09:20;;;;;;;7.15;4.55;;;17.20;45.50;;;;;;5085516;28;20056;-68
2022/01/24 15:11:48;;;;;;;4.85;4.45;;;17.20;45.60;;;;;;5083675;28;20127;-67
2022/01/24 15:27:57;;;;;;;4.28;3.95;;;17.10;45.30;;;;;;5149271;27;1161704;-66
2022/01/24 15:30:25;;;;;;;3.95;3.65;;;17.20;45.00;;;;;;5149452;27;20094;-66
2022/01/24 15:32:50;;;;;;;3.58;3.28;;;17.20;45.20;;;;;;5149454;27;20050;-65
2022/01/24 15:35:17;;;;;;;4.30;3.25;;;17.10;45.10;;;;;;5149476;27;20030;-66
2022/01/24 15:37:45;;;;;;;4.03;3.67;;;17.10;45.10;;;;;;5149266;27;20035;-66
2022/01/24 15:40:12;;;;;;;3.80;3.50;;;17.10;45.20;;;;;;5148273;27;20034;-65
2022/01/24 15:48:09;;;;;;;3.47;3.25;;;17.10;45.30;;;;;;5086177;28;20758;-68
2022/01/24 15:50:35;;;;;;;3.83;3.53;;;17.10;45.30;;;;;;5084423;28;20414;-66
2022/01/24 15:53:02;;;;;;;4.43;3.95;;;17.00;45.20;;;;;;5083020;28;20266;-69
2022/01/24 15:55:32;;;;;;;4.07;3.78;;;17.10;45.20;;;;;;5086953;28;20056;-65
2022/01/24 15:57:59;;;;;;;4.13;3.83;;;17.10;45.30;;;;;;5086052;28;20063;-67
2022/01/24 16:00:28;;;;;;;4.32;3.92;;;17.00;45.20;;;;;;5084456;28;20044;-65
2022/01/24 16:02:57;;;;;;;4.07;3.75;;;17.00;45.20;;;;;;5084348;28;20040;-65
2022/01/24 16:05:27;;;;;;;3.83;3.53;;;17.00;45.20;;;;;;5085402;28;20090;-65
2022/01/24 16:07:54;;;;;;;4.45;3.90;;;17.00;45.20;;;;;;5088501;28;20062;-66
2022/01/24 16:10:23;;;;;;;5.22;4.00;;;16.90;45.20;;;;;;5085923;28;20047;-65
2022/01/24 16:12:49;;;;;;;4.90;4.45;;;16.80;45.10;;;;;;5085684;28;20051;-65
2022/01/24 16:15:18;;;;;;;4.03;3.72;;;16.80;45.20;;;;;;5087743;28;20379;-65
2022/01/24 16:17:44;;;;;;;4.13;3.83;;;16.80;45.20;;;;;;5086635;28;20123;-65
2022/01/24 16:20:21;;;;;;;3.85;3.55;;;16.80;45.20;;;;;;5086055;28;20506;-66
2022/01/24 16:23:18;;;;;;;4.78;4.47;;;16.70;45.20;;;;;;5087822;28;20227;-65